Time;durP1;ratioP1;P1;durP2;ratioP2;P2;SDS_P1;SDS_P2;PMS_P1;PMS_P2;Temp;Humidity;BMP_temperature;BMP_pressure;BME280_temperature;BME280_humidity;BME280_pressure;Samples;Min_cycle;Max_cycle;Signal;HPM_P1;HPM_P2
2022/01/26 00:00:54;;;;;;;25.90;16.10;;;;;;;2.91;84.56;100882.73;107500;1273;139795;-71
2022/01/26 00:06:16;;;;;;;25.60;16.50;;;;;;;3.00;84.36;100878.84;107550;1274;96310;-71
2022/01/26 00:08:44;;;;;;;26.80;17.00;;;;;;;3.00;84.36;100877.82;107495;1273;138976;-72
2022/01/26 00:11:13;;;;;;;28.90;17.00;;;;;;;3.01;84.26;100882.30;107543;1273;111408;-71
2022/01/26 00:13:42;;;;;;;25.00;15.90;;;;;;;2.99;84.13;100881.07;107503;1273;138596;-72
2022/01/26 00:16:21;;;;;;;26.30;15.20;;;;;;;2.98;84.26;100880.73;107460;1274;108635;-71
2022/01/26 00:18:52;;;;;;;24.50;15.50;;;;;;;2.97;84.09;100876.42;107487;1272;138706;-71
2022/01/26 00:21:28;;;;;;;23.60;14.50;;;;;;;2.96;84.15;100875.21;107497;1274;96231;-71
2022/01/26 00:24:11;;;;;;;27.90;16.40;;;;;;;2.97;84.16;100878.31;107518;1273;113557;-71
2022/01/26 00:27:02;;;;;;;24.10;15.60;;;;;;;2.96;83.93;100875.90;107516;1273;138841;-71
2022/01/26 00:29:35;;;;;;;25.00;15.60;;;;;;;2.91;83.91;100878.79;107494;1274;108891;-72
2022/01/26 00:40:34;;;;;;;23.60;14.40;;;;;;;2.93;84.10;100882.75;107589;1273;107753;-72
2022/01/26 00:43:12;;;;;;;24.30;14.30;;;;;;;2.98;84.08;100880.38;107450;1274;139124;-72
2022/01/26 00:45:42;;;;;;;24.50;14.90;;;;;;;2.99;84.01;100885.54;107570;1273;95995;-72
2022/01/26 00:48:14;;;;;;;27.90;15.30;;;;;;;3.02;84.03;100885.39;107543;1274;96288;-72
2022/01/26 00:50:49;;;;;;;26.80;15.40;;;;;;;3.02;83.95;100884.19;107482;1273;137933;-72
2022/01/26 00:53:20;;;;;;;26.70;15.90;;;;;;;3.02;83.81;100886.94;107611;1273;109088;-72
2022/01/26 00:55:48;;;;;;;26.20;15.00;;;;;;;3.02;83.75;100887.80;107405;1274;138708;-72
2022/01/26 00:58:17;;;;;;;23.10;14.10;;;;;;;3.02;83.66;100885.21;107565;1273;96225;-70
2022/01/26 01:00:46;;;;;;;25.50;15.30;;;;;;;3.02;83.61;100885.39;107512;1273;139356;-72
2022/01/26 01:03:15;;;;;;;26.60;15.00;;;;;;;3.03;83.56;100888.14;107567;1273;113043;-72
2022/01/26 01:05:52;;;;;;;24.90;14.60;;;;;;;3.02;83.68;100885.73;107624;1273;108983;-72
2022/01/26 01:08:23;;;;;;;26.40;16.80;;;;;;;3.03;83.76;100887.45;107490;1273;138086;-72
2022/01/26 01:10:53;;;;;;;26.20;16.00;;;;;;;3.03;83.64;100882.81;107594;1273;96296;-72
2022/01/26 01:13:32;;;;;;;28.70;16.30;;;;;;;3.04;83.58;100880.42;107431;1275;137787;-72
2022/01/26 01:16:01;;;;;;;25.60;16.40;;;;;;;3.02;83.54;100877.48;107589;1274;112430;-72
2022/01/26 01:18:37;;;;;;;25.70;14.90;;;;;;;3.00;83.43;100876.80;107288;1276;139862;-72
2022/01/26 01:29:35;;;;;;;26.50;15.80;;;;;;;3.07;83.55;100868.62;107480;1275;112331;-72
2022/01/26 01:32:12;;;;;;;25.20;16.10;;;;;;;3.11;83.58;100867.10;107538;1274;138468;-72
2022/01/26 01:34:40;;;;;;;28.80;16.50;;;;;;;3.13;83.37;100863.15;107554;1270;107886;-72
2022/01/26 01:37:14;;;;;;;30.60;18.10;;;;;;;3.11;83.24;100859.02;107468;1273;138886;-72
2022/01/26 01:39:44;;;;;;;27.70;17.10;;;;;;;3.05;83.19;100856.05;107613;1274;96080;-72
2022/01/26 01:42:12;;;;;;;28.80;17.00;;;;;;;3.00;83.01;100855.84;107600;1273;112875;-72
2022/01/26 01:44:41;;;;;;;25.90;15.90;;;;;;;2.99;83.28;100855.99;107435;1276;138379;-72
2022/01/26 01:47:10;;;;;;;25.30;15.00;;;;;;;3.00;83.19;100854.80;107564;1273;108936;-72
2022/01/26 01:49:38;;;;;;;29.80;16.30;;;;;;;3.01;83.24;100854.80;107480;1273;138832;-71
2022/01/26 01:52:13;;;;;;;26.50;16.90;;;;;;;3.01;83.08;100855.15;107636;1273;96856;-72
2022/01/26 01:54:48;;;;;;;29.60;17.90;;;;;;;2.99;83.18;100856.16;107503;1273;138200;-71
2022/01/26 01:57:23;;;;;;;29.40;18.30;;;;;;;2.98;83.15;100852.89;107591;1273;108817;-71
2022/01/26 01:59:52;;;;;;;31.10;18.30;;;;;;;2.98;83.30;100852.73;107633;1274;109378;-72
2022/01/26 02:02:21;;;;;;;31.60;18.30;;;;;;;2.98;83.28;100853.23;107470;1273;138008;-72
2022/01/26 02:04:50;;;;;;;28.90;17.60;;;;;;;2.97;83.14;100856.84;107567;1273;95965;-71
2022/01/26 02:07:18;;;;;;;28.80;17.00;;;;;;;2.96;83.18;100852.02;107512;1273;138712;-72
2022/01/26 02:09:47;;;;;;;28.50;16.40;;;;;;;2.95;83.05;100851.16;107533;1274;108776;-72
2022/01/26 02:12:20;;;;;;;27.50;16.10;;;;;;;2.92;83.02;100851.99;107568;1273;109103;-71
2022/01/26 02:14:53;;;;;;;28.30;17.40;;;;;;;2.93;83.15;100851.83;107531;1274;140179;-73
2022/01/26 02:17:38;;;;;;;29.80;17.30;;;;;;;3.00;83.34;100849.65;107460;1275;96253;-72
2022/01/26 02:20:35;;;;;;;26.30;18.10;;;;;;;3.06;83.23;100844.55;107357;1276;138110;-70
2022/01/26 02:51:37;;;;;;;27.30;17.90;;;;;;;3.04;82.83;100836.27;107098;1279;138187;-71
2022/01/26 02:54:33;;;;;;;;;;;;;;;3.00;82.74;100835.21;107269;1278;108921;-71
2022/01/26 02:57:15;;;;;;;26.30;16.20;;;;;;;2.94;82.73;100838.27;107150;1278;125720;-71
2022/01/26 02:59:58;;;;;;;29.20;16.10;;;;;;;2.93;82.85;100841.36;107210;1279;96321;-72
2022/01/26 03:02:37;;;;;;;30.80;16.20;;;;;;;2.95;83.10;100838.27;107073;1276;139435;-71
2022/01/26 03:05:09;;;;;;;24.90;15.80;;;;;;;2.98;82.94;100838.46;107564;1273;110914;-72
2022/01/26 03:07:42;;;;;;;27.80;16.90;;;;;;;3.02;83.10;100837.29;107480;1274;138081;-71
2022/01/26 03:10:20;;;;;;;27.20;17.10;;;;;;;3.05;82.84;100835.60;107564;1273;96145;-71
2022/01/26 03:12:55;;;;;;;29.00;17.50;;;;;;;3.08;82.82;100833.40;107481;1273;138292;-71
2022/01/26 03:15:28;;;;;;;28.60;17.80;;;;;;;3.07;82.62;100833.23;107591;1273;112539;-71
2022/01/26 03:18:18;;;;;;;28.80;18.10;;;;;;;3.00;82.34;100838.48;107498;1275;109536;-71
2022/01/26 03:20:48;;;;;;;26.10;17.30;;;;;;;2.93;82.37;100842.90;107469;1273;137931;-71
2022/01/26 03:29:10;;;;;;;24.30;15.50;;;;;;;2.84;82.61;100834.55;107554;1273;111802;-72
2022/01/26 03:34:34;;;;;;;29.20;16.80;;;;;;;2.89;82.76;100833.94;107106;1279;109827;-71
2022/01/26 03:37:07;;;;;;;28.70;16.80;;;;;;;2.85;82.31;100830.96;107017;1278;139328;-72
2022/01/26 03:39:42;;;;;;;30.30;18.00;;;;;;;2.81;82.39;100824.58;107194;1279;96256;-71
2022/01/26 03:42:14;;;;;;;30.90;18.30;;;;;;;2.75;82.27;100824.89;106998;1279;113096;-72
2022/01/26 03:44:44;;;;;;;32.60;18.20;;;;;;;2.73;82.36;100825.73;107021;1278;138563;-71
2022/01/26 03:47:13;;;;;;;29.40;17.20;;;;;;;2.69;82.29;100825.34;107151;1277;109287;-72
2022/01/26 03:49:42;;;;;;;28.20;17.00;;;;;;;2.68;82.52;100823.43;107011;1278;138570;-71
2022/01/26 03:52:11;;;;;;;29.00;17.20;;;;;;;2.74;82.71;100826.59;107194;1279;96337;-71
2022/01/26 03:54:39;;;;;;;27.80;17.30;;;;;;;2.80;82.82;100824.39;106990;1279;112723;-71
2022/01/26 03:57:08;;;;;;;30.00;17.30;;;;;;;2.88;82.71;100830.66;107050;1279;138012;-71
2022/01/26 03:59:36;;;;;;;29.50;18.10;;;;;;;2.88;82.52;100828.08;107154;1278;108741;-71
2022/01/26 04:02:06;;;;;;;36.10;18.90;;;;;;;2.85;82.19;100834.56;107061;1278;139283;-71
2022/01/26 04:04:42;;;;;;;29.90;18.20;;;;;;;2.82;82.30;100836.09;107161;1279;96068;-71
2022/01/26 04:07:11;;;;;;;29.50;17.90;;;;;;;2.80;82.38;100836.59;107098;1279;137821;-71
2022/01/26 04:09:39;;;;;;;28.50;17.40;;;;;;;2.76;82.36;100832.79;106790;1281;109179;-71
2022/01/26 04:12:10;;;;;;;29.80;17.60;;;;;;;2.75;82.20;100834.66;107583;1273;108969;-72
2022/01/26 04:14:40;;;;;;;29.90;18.00;;;;;;;2.75;82.30;100834.84;107207;1276;139261;-72
2022/01/26 04:17:09;;;;;;;28.20;16.80;;;;;;;2.75;82.56;100830.89;107586;1273;96079;-71
2022/01/26 04:19:39;;;;;;;30.10;18.00;;;;;;;2.75;82.39;100832.77;107477;1273;138037;-71
2022/01/26 04:22:16;;;;;;;32.60;18.60;;;;;;;2.76;82.42;100831.75;107568;1274;107865;-71
2022/01/26 04:24:48;;;;;;;29.90;18.40;;;;;;;2.79;82.46;100830.75;107544;1273;108689;-71
2022/01/26 04:27:22;;;;;;;30.60;17.90;;;;;;;2.80;82.26;100829.73;107449;1274;137760;-71
2022/01/26 04:29:51;;;;;;;29.90;17.20;;;;;;;2.79;82.37;100829.20;107577;1274;96033;-71
2022/01/26 04:32:20;;;;;;;33.80;17.20;;;;;;;2.76;82.32;100829.18;107455;1273;139418;-71
2022/01/26 04:34:49;;;;;;;27.30;16.80;;;;;;;2.71;82.06;100826.23;107544;1274;107303;-71
2022/01/26 04:37:29;;;;;;;23.20;14.60;;;;;;;2.66;82.13;100826.16;107435;1273;138879;-71
2022/01/26 04:40:01;;;;;;;22.50;14.30;;;;;;;2.64;82.14;100826.48;107570;1273;96052;-71
2022/01/26 04:42:39;;;;;;;24.60;14.50;;;;;;;2.64;82.35;100828.38;107585;1274;96225;-71
2022/01/26 04:45:10;;;;;;;20.80;13.50;;;;;;;2.68;82.38;100825.48;107465;1273;138337;-71
2022/01/26 04:47:40;;;;;;;25.10;14.90;;;;;;;2.69;82.33;100821.36;107581;1273;109048;-71
2022/01/26 04:50:11;;;;;;;26.50;14.10;;;;;;;2.67;82.22;100822.55;107501;1273;141412;-71
2022/01/26 04:52:40;;;;;;;22.10;12.60;;;;;;;2.63;82.03;100819.27;107563;1273;96307;-71
2022/01/26 04:55:10;;;;;;;24.90;14.00;;;;;;;2.61;82.26;100819.59;107308;1275;138361;-71
2022/01/26 04:57:39;;;;;;;24.80;12.90;;;;;;;2.59;82.12;100814.42;107589;1274;112747;-71
2022/01/26 05:00:10;;;;;;;22.50;12.00;;;;;;;2.57;82.32;100816.30;107596;1273;109268;-71
2022/01/26 05:02:39;;;;;;;20.50;10.70;;;;;;;2.53;82.23;100813.87;107437;1273;138696;-71
2022/01/26 05:05:09;;;;;;;22.10;10.20;;;;;;;2.51;82.29;100808.52;107558;1274;95784;-71
2022/01/26 05:07:37;;;;;;;17.60;10.60;;;;;;;2.51;82.45;100804.91;107345;1276;138610;-71
2022/01/26 05:10:07;;;;;;;16.80;10.10;;;;;;;2.51;82.45;100801.48;107579;1274;110870;-71
2022/01/26 05:12:36;;;;;;;15.60;9.20;;;;;;;2.53;82.38;100797.04;107566;1273;109759;-71
2022/01/26 05:15:06;;;;;;;18.30;9.10;;;;;;;2.53;82.40;100797.74;107345;1275;138066;-71
2022/01/26 05:17:35;;;;;;;17.30;9.50;;;;;;;2.53;82.20;100794.30;107590;1273;96071;-71
2022/01/26 05:20:07;;;;;;;18.40;9.00;;;;;;;2.54;82.33;100789.50;107434;1273;138201;-71
2022/01/26 05:22:38;;;;;;;15.10;8.90;;;;;;;2.50;82.13;100790.83;107516;1273;112822;-71
2022/01/26 05:25:07;;;;;;;15.30;8.00;;;;;;;2.45;82.11;100790.95;107347;1276;139059;-71
2022/01/26 05:27:36;;;;;;;17.30;8.50;;;;;;;2.41;82.12;100793.67;107446;1276;109269;-71
2022/01/26 05:30:07;;;;;;;14.20;8.50;;;;;;;2.39;82.24;100792.61;107567;1273;95941;-71
2022/01/26 05:32:36;;;;;;;14.90;8.90;;;;;;;2.37;82.26;100791.06;107463;1273;139145;-71
2022/01/26 05:35:05;;;;;;;16.70;9.40;;;;;;;2.38;82.31;100787.98;107548;1273;112407;-71
2022/01/26 05:37:34;;;;;;;17.90;9.90;;;;;;;2.39;82.47;100787.46;107478;1274;138798;-71
2022/01/26 05:40:03;;;;;;;20.40;11.70;;;;;;;2.40;82.41;100787.65;107602;1273;109158;-71
2022/01/26 05:42:34;;;;;;;20.70;11.80;;;;;;;2.39;82.46;100793.48;107575;1273;96170;-71
2022/01/26 05:45:06;;;;;;;21.30;12.00;;;;;;;2.35;82.36;100794.13;107382;1276;138664;-71
2022/01/26 05:47:35;;;;;;;22.90;13.00;;;;;;;2.34;82.35;100795.84;107593;1273;112549;-71
2022/01/26 05:50:05;;;;;;;19.60;12.90;;;;;;;2.32;82.36;100794.60;107422;1274;139222;-71
2022/01/26 05:52:33;;;;;;;23.20;13.10;;;;;;;2.29;82.50;100797.48;107497;1275;108996;-72
2022/01/26 05:55:02;;;;;;;21.40;12.60;;;;;;;2.31;82.73;100800.06;107486;1273;139744;-71
2022/01/26 05:57:30;;;;;;;22.00;13.10;;;;;;;2.35;82.89;100800.64;107588;1273;96266;-72
2022/01/26 05:59:59;;;;;;;22.10;13.90;;;;;;;2.34;82.55;100799.27;107629;1273;112537;-72
2022/01/26 06:02:29;;;;;;;24.60;14.50;;;;;;;2.35;82.69;100796.02;107441;1273;137809;-72
2022/01/26 06:04:58;;;;;;;26.10;14.60;;;;;;;2.35;82.73;100794.30;107590;1273;108892;-72
2022/01/26 06:07:26;;;;;;;24.90;14.80;;;;;;;2.36;82.67;100791.73;107482;1273;139052;-71
2022/01/26 06:09:55;;;;;;;27.20;13.20;;;;;;;2.32;82.53;100790.80;107537;1273;96894;-71
2022/01/26 06:12:23;;;;;;;22.10;13.40;;;;;;;2.27;82.46;100790.95;107584;1273;112252;-72
2022/01/26 06:14:52;;;;;;;25.20;12.70;;;;;;;2.27;82.57;100788.88;107495;1273;139079;-72
2022/01/26 06:17:21;;;;;;;27.80;12.90;;;;;;;2.27;82.62;100790.42;107553;1273;109027;-72
2022/01/26 06:19:49;;;;;;;19.60;12.60;;;;;;;2.30;82.60;100790.80;107500;1273;141561;-71
2022/01/26 06:22:18;;;;;;;19.30;12.00;;;;;;;2.34;82.56;100786.54;107596;1273;96185;-72
2022/01/26 06:24:46;;;;;;;21.50;12.30;;;;;;;2.35;82.58;100786.40;107523;1276;112584;-72
2022/01/26 06:27:15;;;;;;;23.80;14.00;;;;;;;2.36;82.48;100779.21;107494;1274;137745;-71
2022/01/26 06:29:43;;;;;;;26.70;14.40;;;;;;;2.35;82.28;100779.89;107554;1273;108884;-71
2022/01/26 06:32:12;;;;;;;26.10;15.60;;;;;;;2.35;82.35;100778.52;107470;1273;139353;-71
2022/01/26 06:34:41;;;;;;;25.40;15.10;;;;;;;2.35;82.42;100779.20;107616;1274;96320;-70
2022/01/26 06:37:09;;;;;;;24.80;14.60;;;;;;;2.34;82.40;100778.15;107467;1273;137853;-70
2022/01/26 06:39:38;;;;;;;26.80;14.60;;;;;;;2.34;82.46;100779.02;107594;1273;108827;-70
2022/01/26 06:42:12;;;;;;;24.50;14.30;;;;;;;2.34;82.34;100777.30;107572;1273;107978;-71
2022/01/26 06:44:51;;;;;;;24.20;14.50;;;;;;;2.33;82.28;100778.64;107390;1273;138555;-71
2022/01/26 06:47:34;;;;;;;26.80;15.80;;;;;;;2.35;82.41;100776.63;107503;1274;96163;-72
2022/01/26 06:50:05;;;;;;;27.40;15.70;;;;;;;2.40;82.41;100781.81;107384;1274;138409;-71
2022/01/26 06:52:34;;;;;;;29.50;16.00;;;;;;;2.45;82.49;100780.82;107527;1273;109094;-72
2022/01/26 06:55:04;;;;;;;30.90;16.20;;;;;;;2.43;82.14;100778.75;107475;1273;138544;-72
2022/01/26 06:57:32;;;;;;;31.20;17.80;;;;;;;2.40;82.22;100779.75;107527;1275;96013;-71
2022/01/26 07:00:01;;;;;;;29.80;17.80;;;;;;;2.37;82.03;100780.42;107534;1273;96337;-71
2022/01/26 07:02:29;;;;;;;27.80;16.90;;;;;;;2.33;81.92;100778.65;107460;1274;137993;-72
2022/01/26 07:04:58;;;;;;;29.10;16.50;;;;;;;2.30;81.96;100777.92;107594;1274;108865;-72
2022/01/26 07:07:26;;;;;;;28.30;15.50;;;;;;;2.28;82.13;100775.33;107418;1274;139177;-72
2022/01/26 07:09:55;;;;;;;27.90;16.70;;;;;;;2.30;82.41;100778.09;107543;1274;96204;-72
2022/01/26 07:12:23;;;;;;;29.60;17.20;;;;;;;2.34;82.36;100779.36;107543;1276;96269;-72
2022/01/26 07:23:17;;;;;;;29.90;17.80;;;;;;;2.41;82.26;100775.14;107415;1274;96117;-72
2022/01/26 07:25:46;;;;;;;29.30;16.80;;;;;;;2.38;82.03;100771.83;107473;1273;137725;-72
2022/01/26 07:28:16;;;;;;;30.50;18.20;;;;;;;2.31;81.96;100767.64;107627;1274;112697;-72
2022/01/26 07:30:44;;;;;;;28.70;16.80;;;;;;;2.34;82.27;100762.36;107555;1273;106804;-72
2022/01/26 07:33:13;;;;;;;26.80;16.20;;;;;;;2.37;82.22;100763.77;107377;1273;138564;-71
2022/01/26 07:35:42;;;;;;;24.90;14.90;;;;;;;2.40;82.37;100764.99;107447;1276;96275;-71
2022/01/26 07:38:10;;;;;;;27.10;15.50;;;;;;;2.44;82.33;100766.56;107460;1274;140029;-72
2022/01/26 07:40:41;;;;;;;28.90;14.90;;;;;;;2.47;82.08;100767.10;107468;1275;112479;-71
2022/01/26 07:43:10;;;;;;;26.50;15.00;;;;;;;2.52;82.25;100767.67;107432;1274;138481;-71
2022/01/26 07:45:38;;;;;;;29.00;15.40;;;;;;;2.58;82.27;100770.13;107519;1274;107792;-72
2022/01/26 07:48:07;;;;;;;31.50;14.90;;;;;;;2.59;82.05;100774.77;107559;1274;96192;-73
2022/01/26 07:50:36;;;;;;;26.70;14.40;;;;;;;2.59;81.99;100777.17;107407;1273;139544;-72
2022/01/26 07:53:04;;;;;;;23.10;13.40;;;;;;;2.60;81.93;100775.64;107500;1274;112444;-72
2022/01/26 07:55:33;;;;;;;27.50;13.80;;;;;;;2.59;81.82;100773.23;107458;1273;138778;-73
2022/01/26 07:58:01;;;;;;;23.60;13.10;;;;;;;2.60;81.96;100773.06;107504;1273;109268;-72
2022/01/26 08:00:30;;;;;;;20.10;12.60;;;;;;;2.62;81.77;100778.40;107473;1274;96976;-72
2022/01/26 08:02:59;;;;;;;23.00;12.70;;;;;;;2.67;81.99;100772.42;107433;1273;139134;-72
2022/01/26 08:05:28;;;;;;;24.50;13.80;;;;;;;2.69;81.83;100773.85;107544;1273;112509;-72
2022/01/26 08:07:56;;;;;;;25.70;14.50;;;;;;;2.72;81.88;100774.21;107392;1274;137807;-73
2022/01/26 08:10:25;;;;;;;27.10;14.40;;;;;;;2.73;81.74;100766.14;107505;1274;107183;-72
2022/01/26 08:12:54;;;;;;;24.30;14.00;;;;;;;2.73;81.64;100767.69;107525;1273;95906;-72
2022/01/26 08:15:26;;;;;;;30.50;16.20;;;;;;;2.70;81.39;100766.29;107480;1273;137935;-72
2022/01/26 08:17:58;;;;;;;28.60;16.80;;;;;;;2.73;81.46;100769.40;107548;1273;112617;-72
2022/01/26 08:20:28;;;;;;;26.20;15.50;;;;;;;2.78;81.52;100774.23;107418;1273;140105;-73
2022/01/26 08:22:57;;;;;;;24.60;14.30;;;;;;;2.82;81.39;100768.60;107520;1274;109235;-73
2022/01/26 08:25:28;;;;;;;28.00;15.70;;;;;;;2.90;81.44;100770.21;107392;1274;138732;-73
2022/01/26 08:28:03;;;;;;;25.40;15.00;;;;;;;3.00;81.42;100775.60;107575;1274;95983;-72
2022/01/26 08:30:36;;;;;;;26.50;15.40;;;;;;;3.11;81.29;100772.60;107519;1273;112625;-72
2022/01/26 08:33:05;;;;;;;28.00;15.90;;;;;;;3.19;80.87;100773.49;107363;1276;138256;-72
2022/01/26 08:35:36;;;;;;;34.40;18.00;;;;;;;3.29;81.04;100775.29;107512;1274;109080;-71
2022/01/26 08:38:05;;;;;;;30.40;18.40;;;;;;;3.39;80.61;100772.94;107350;1273;139119;-72
2022/01/26 08:40:34;;;;;;;33.20;18.20;;;;;;;3.44;80.29;100775.89;107528;1273;95841;-70
2022/01/26 08:43:04;;;;;;;32.10;18.30;;;;;;;3.48;80.24;100776.77;107489;1274;139456;-71
2022/01/26 08:45:32;;;;;;;35.80;18.60;;;;;;;3.50;79.88;100780.05;107472;1274;107102;-72
2022/01/26 08:48:02;;;;;;;31.80;18.40;;;;;;;3.53;79.89;100783.14;107551;1273;108802;-72
2022/01/26 08:50:31;;;;;;;32.80;18.00;;;;;;;3.53;79.84;100776.11;107240;1276;139756;-72
2022/01/26 08:52:59;;;;;;;31.50;17.00;;;;;;;3.58;79.69;100770.61;107549;1273;95893;-73
2022/01/26 08:55:28;;;;;;;36.60;18.30;;;;;;;3.61;79.33;100764.98;107524;1273;138887;-71
2022/01/26 08:57:57;;;;;;;27.80;17.60;;;;;;;3.68;79.62;100768.42;107501;1275;108858;-72
2022/01/26 09:00:25;;;;;;;34.50;18.50;;;;;;;3.75;79.44;100762.59;107566;1274;109060;-73
2022/01/26 09:02:55;;;;;;;34.30;19.20;;;;;;;3.80;79.11;100761.10;107456;1273;138659;-71
2022/01/26 09:05:24;;;;;;;31.50;19.10;;;;;;;3.87;79.28;100759.55;107584;1273;96091;-71
2022/01/26 09:07:56;;;;;;;35.30;20.00;;;;;;;3.93;78.83;100762.15;107416;1275;138624;-72
2022/01/26 09:10:27;;;;;;;33.60;19.60;;;;;;;3.91;78.56;100759.21;107602;1274;110635;-71
2022/01/26 09:12:56;;;;;;;34.30;19.90;;;;;;;3.86;78.45;100761.11;107589;1273;108665;-72
2022/01/26 09:15:28;;;;;;;34.70;20.00;;;;;;;3.88;78.55;100759.22;107494;1274;138224;-72
2022/01/26 09:17:59;;;;;;;33.10;18.90;;;;;;;3.88;78.30;100755.77;107408;1276;96932;-72
2022/01/26 09:20:28;;;;;;;34.00;19.00;;;;;;;3.84;78.11;100751.64;107417;1273;139776;-72
2022/01/26 09:22:56;;;;;;;32.20;18.20;;;;;;;3.84;78.54;100754.04;107350;1273;109064;-72
2022/01/26 09:25:25;;;;;;;30.50;17.20;;;;;;;3.86;78.32;100758.35;107322;1273;138837;-72
2022/01/26 09:27:54;;;;;;;36.50;19.70;;;;;;;3.87;78.24;100760.94;107521;1273;96257;-72
2022/01/26 09:30:23;;;;;;;32.20;18.30;;;;;;;3.84;78.04;100759.04;107556;1273;95838;-71
2022/01/26 09:32:51;;;;;;;33.80;19.00;;;;;;;3.82;78.34;100759.38;107366;1273;138534;-71
2022/01/26 09:35:23;;;;;;;29.70;18.70;;;;;;;3.77;78.27;100761.92;107464;1274;105936;-71
2022/01/26 09:37:51;;;;;;;34.40;20.70;;;;;;;3.76;78.36;100762.77;107313;1276;139332;-72
2022/01/26 09:40:20;;;;;;;34.20;19.40;;;;;;;3.74;78.34;100764.83;107549;1273;95785;-71
2022/01/26 09:42:51;;;;;;;32.20;19.20;;;;;;;3.72;78.43;100761.39;107558;1274;96236;-71
2022/01/26 09:45:20;;;;;;;31.80;18.70;;;;;;;3.69;78.38;100763.45;107278;1274;139289;-71
2022/01/26 09:47:49;;;;;;;32.30;18.70;;;;;;;3.69;78.35;100764.82;107525;1274;109071;-71
2022/01/26 09:50:38;;;;;;;27.90;17.90;;;;;;;3.66;78.39;100761.55;107290;1274;139181;-70
2022/01/26 09:53:06;;;;;;;30.70;18.50;;;;;;;3.66;78.49;100759.14;107368;1276;96211;-71
2022/01/26 09:55:35;;;;;;;28.80;18.40;;;;;;;3.61;78.34;100756.21;107350;1274;138565;-73
2022/01/26 09:58:08;;;;;;;31.30;18.80;;;;;;;3.62;78.28;100755.70;107397;1276;112525;-72
2022/01/26 10:00:37;;;;;;;29.70;18.10;;;;;;;3.68;78.25;100751.75;107444;1274;109259;-71
2022/01/26 10:03:07;;;;;;;31.70;18.20;;;;;;;3.74;78.32;100757.09;107395;1274;138122;-72
2022/01/26 10:05:41;;;;;;;33.60;18.80;;;;;;;3.79;78.22;100751.45;107527;1274;97301;-72
2022/01/26 10:08:22;;;;;;;35.30;18.50;;;;;;;3.86;78.06;100746.83;107405;1273;137819;-72
2022/01/26 10:17:18;;;;;;;27.10;17.30;;;;;;;3.91;77.26;100729.80;107512;1274;109160;-70
2022/01/26 10:19:36;;;;;;;27.90;16.40;;;;;;;3.93;77.44;100730.49;107138;1276;139019;-72
2022/01/26 10:22:05;;;;;;;34.70;18.00;;;;;;;4.00;77.70;100733.63;107500;1274;96160;-72
2022/01/26 10:24:34;;;;;;;32.10;18.20;;;;;;;4.09;77.69;100726.91;107572;1274;112808;-71
2022/01/26 10:27:02;;;;;;;25.20;14.70;;;;;;;4.20;77.37;100723.85;107334;1274;139190;-71
2022/01/26 10:29:33;;;;;;;28.00;15.90;;;;;;;4.31;76.88;100718.88;107515;1274;108951;-71
2022/01/26 10:32:13;;;;;;;30.50;16.80;;;;;;;4.43;76.75;100721.97;107244;1274;139009;-71
2022/01/26 10:34:42;;;;;;;27.90;15.60;;;;;;;4.46;76.47;100720.23;107413;1277;97230;-71
2022/01/26 10:37:10;;;;;;;24.30;14.50;;;;;;;4.42;76.18;100717.84;107398;1274;138137;-71
2022/01/26 10:39:45;;;;;;;23.20;14.40;;;;;;;4.42;76.41;100718.02;107515;1274;108146;-72
2022/01/26 10:42:19;;;;;;;22.40;13.60;;;;;;;4.43;76.04;100716.80;107564;1274;109559;-71
2022/01/26 10:44:53;;;;;;;25.40;14.20;;;;;;;4.36;75.56;100712.86;107343;1276;138127;-72
2022/01/26 10:47:31;;;;;;;28.60;14.90;;;;;;;4.34;75.70;100707.69;107507;1274;97054;-72
2022/01/26 10:50:30;;;;;;;27.20;14.80;;;;;;;4.36;75.64;100706.14;107512;1274;137743;-72
2022/01/26 10:53:07;;;;;;;23.40;13.20;;;;;;;4.30;75.59;100704.23;107542;1274;109351;-72
2022/01/26 10:55:37;;;;;;;22.60;12.70;;;;;;;4.20;75.51;100700.61;107434;1274;139150;-72
2022/01/26 10:58:08;;;;;;;19.90;12.10;;;;;;;4.15;75.49;100696.66;107542;1274;96135;-70
2022/01/26 11:00:38;;;;;;;20.50;10.90;;;;;;;4.09;75.23;100694.73;107592;1273;96154;-71
2022/01/26 11:03:08;;;;;;;17.60;11.50;;;;;;;4.01;75.31;100692.33;107472;1273;139055;-71
2022/01/26 11:05:37;;;;;;;16.60;9.10;;;;;;;3.96;75.25;100688.37;107499;1276;109109;-72
2022/01/26 11:08:09;;;;;;;19.70;9.50;;;;;;;3.95;75.32;100686.98;107415;1274;138617;-71
2022/01/26 11:10:39;;;;;;;20.70;9.70;;;;;;;3.92;75.09;100684.55;107595;1273;97444;-71
2022/01/26 11:13:09;;;;;;;15.40;9.60;;;;;;;3.90;75.25;100681.80;107459;1274;138959;-71
2022/01/26 11:15:39;;;;;;;14.70;9.10;;;;;;;3.86;74.94;100677.50;107574;1274;113954;-72
2022/01/26 11:18:10;;;;;;;19.90;9.30;;;;;;;3.79;75.03;100675.77;107494;1276;109049;-71
2022/01/26 11:20:48;;;;;;;19.70;10.80;;;;;;;3.71;74.98;100671.61;107465;1273;139580;-70
2022/01/26 11:23:19;;;;;;;17.80;10.50;;;;;;;3.63;75.53;100669.21;107488;1274;97125;-69
2022/01/26 11:25:49;;;;;;;18.30;10.50;;;;;;;3.59;75.60;100665.05;107414;1274;137896;-71
2022/01/26 11:28:20;;;;;;;21.70;10.40;;;;;;;3.54;75.72;100665.89;107506;1274;112386;-71
2022/01/26 11:30:50;;;;;;;17.90;10.30;;;;;;;3.49;76.07;100664.52;107396;1274;109050;-71
2022/01/26 11:33:22;;;;;;;18.00;10.50;;;;;;;3.46;76.54;100662.10;107312;1273;139220;-70
2022/01/26 11:35:53;;;;;;;21.30;10.60;;;;;;;3.45;76.41;100662.44;107451;1274;96899;-71
2022/01/26 11:39:14;;;;;;;22.10;12.00;;;;;;;3.46;76.69;100663.98;107310;1273;137981;-72
2022/01/26 11:45:08;;;;;;;23.50;14.30;;;;;;;3.37;77.03;100658.09;106943;1277;139060;-72
2022/01/26 11:47:39;;;;;;;29.30;15.40;;;;;;;3.25;77.23;100655.48;107119;1277;109004;-72
2022/01/26 11:50:14;;;;;;;27.40;15.90;;;;;;;3.20;77.65;100652.53;106920;1279;139448;-71
2022/01/26 11:52:46;;;;;;;25.00;15.30;;;;;;;3.22;77.80;100645.16;107032;1278;96155;-70
2022/01/26 11:55:30;;;;;;;22.70;14.30;;;;;;;3.20;78.11;100643.77;106971;1279;138983;-68
2022/01/26 11:58:14;;;;;;;24.90;15.10;;;;;;;3.19;77.99;100641.35;107065;1278;109057;-71
2022/01/26 12:00:50;;;;;;;25.30;15.80;;;;;;;3.14;78.11;100632.06;107146;1277;109003;-70
2022/01/26 12:03:28;;;;;;;27.90;17.20;;;;;;;3.11;78.17;100634.64;107022;1279;138726;-71
2022/01/26 12:05:58;;;;;;;27.70;15.30;;;;;;;3.06;78.32;100634.96;107073;1278;96271;-71
2022/01/26 12:08:44;;;;;;;26.70;16.20;;;;;;;3.01;78.47;100633.02;106985;1279;138392;-71
2022/01/26 12:11:15;;;;;;;24.40;16.20;;;;;;;2.93;78.70;100634.20;107129;1279;108953;-70
2022/01/26 12:13:49;;;;;;;24.00;15.90;;;;;;;2.85;78.79;100627.27;106887;1279;139082;-71
2022/01/26 12:16:22;;;;;;;23.50;14.40;;;;;;;2.81;79.18;100621.77;107280;1274;96506;-71
2022/01/26 12:18:59;;;;;;;21.00;13.80;;;;;;;2.79;79.43;100621.06;107463;1273;96329;-72
2022/01/26 12:33:03;;;;;;;22.30;12.70;;;;;;;2.71;80.03;100619.66;107315;1273;137713;-74
2022/01/26 12:35:43;;;;;;;20.20;13.00;;;;;;;2.65;80.27;100618.75;107546;1273;113105;-74
2022/01/26 12:38:20;;;;;;;19.60;12.50;;;;;;;2.61;80.51;100615.65;107408;1274;138085;-73
2022/01/26 12:43:42;;;;;;;17.40;11.30;;;;;;;2.54;80.56;100610.98;107429;1273;138694;-73
2022/01/26 12:46:14;;;;;;;19.60;12.30;;;;;;;2.54;80.92;100601.71;107612;1273;96218;-73
2022/01/26 12:48:49;;;;;;;19.40;12.00;;;;;;;2.63;81.23;100589.56;107492;1273;112031;-72
2022/01/26 12:51:21;;;;;;;18.50;13.30;;;;;;;2.63;81.06;100587.50;107296;1275;139329;-73
2022/01/26 12:53:53;;;;;;;23.00;14.00;;;;;;;2.64;81.37;100585.95;107520;1274;109206;-73